createdAt,value
2023-10-09T00:00:37.116Z,8.70
2023-10-09T00:03:07.527Z,8.20
2023-10-09T00:05:47.401Z,12.73
2023-10-09T00:08:20.407Z,7.22
2023-10-09T00:10:55.994Z,8.15
2023-10-09T00:13:29.127Z,7.13
2023-10-09T00:16:01.458Z,9.07
2023-10-09T00:18:35.164Z,10.32
2023-10-09T00:21:13.447Z,7.03
2023-10-09T00:23:42.069Z,9.63
2023-10-09T00:26:11.972Z,8.55
2023-10-09T00:28:48.379Z,9.52
2023-10-09T00:31:17.617Z,8.18
2023-10-09T00:33:46.069Z,6.88
2023-10-09T00:36:19.425Z,10.20
2023-10-09T00:38:50.494Z,8.20
2023-10-09T00:41:23.414Z,6.90
2023-10-09T00:43:52.793Z,8.23
2023-10-09T00:46:25.983Z,9.90
2023-10-09T00:48:58.673Z,8.75
2023-10-09T00:51:30.682Z,9.35
2023-10-09T00:54:07.807Z,11.10
2023-10-09T00:56:43.003Z,7.80
2023-10-09T00:59:15.627Z,10.45
2023-10-09T01:01:57.653Z,8.82
2023-10-09T01:04:31.198Z,9.35
2023-10-09T01:07:16.286Z,10.43
2023-10-09T01:09:45.679Z,9.20
2023-10-09T01:12:19.173Z,10.10
2023-10-09T01:14:53.564Z,9.85
2023-10-09T01:17:36.766Z,7.75
2023-10-09T01:20:06.680Z,10.93
2023-10-09T01:22:36.562Z,7.45
2023-10-09T01:25:07.743Z,9.38
2023-10-09T01:27:36.189Z,9.70
2023-10-09T01:30:04.643Z,8.15
2023-10-09T01:32:33.027Z,9.80
2023-10-09T01:35:01.361Z,9.35
2023-10-09T01:37:30.090Z,11.32
2023-10-09T01:40:00.237Z,9.13
2023-10-09T01:42:35.606Z,10.40
2023-10-09T01:45:17.688Z,11.73
2023-10-09T01:47:54.497Z,8.10
2023-10-09T01:50:25.600Z,9.23
2023-10-09T01:52:53.972Z,9.95
2023-10-09T01:55:34.038Z,11.32
2023-10-09T01:58:06.859Z,12.18
2023-10-09T02:00:44.590Z,10.93
2023-10-09T02:03:24.731Z,12.95
2023-10-09T02:05:53.871Z,10.57
2023-10-09T02:08:27.910Z,10.73
2023-10-09T02:10:57.187Z,8.40
2023-10-09T02:13:30.580Z,10.35
2023-10-09T02:16:14.424Z,10.55
2023-10-09T02:18:53.964Z,14.52
2023-10-09T02:21:33.779Z,14.38
2023-10-09T02:24:06.013Z,9.82
2023-10-09T02:26:56.965Z,11.25
2023-10-09T02:29:27.743Z,9.18
2023-10-09T02:32:02.117Z,11.40
2023-10-09T02:34:31.250Z,9.23
2023-10-09T02:37:05.418Z,9.93
2023-10-09T02:39:38.293Z,11.02
2023-10-09T02:42:20.364Z,10.50
2023-10-09T02:44:51.588Z,11.57
2023-10-09T02:47:25.817Z,8.68
2023-10-09T02:50:01.568Z,11.57
2023-10-09T02:52:35.198Z,13.45
2023-10-09T02:55:09.115Z,14.32
2023-10-09T02:57:38.445Z,15.20
2023-10-09T03:00:18.956Z,14.05
2023-10-09T03:02:50.851Z,10.43
2023-10-09T03:05:21.658Z,11.77
2023-10-09T03:07:50.110Z,12.45
2023-10-09T03:10:18.600Z,14.85
2023-10-09T03:12:49.959Z,13.80
2023-10-09T03:15:21.076Z,15.30
2023-10-09T03:17:49.874Z,21.02
2023-10-09T03:20:19.534Z,16.38
2023-10-09T03:22:49.557Z,15.27
2023-10-09T03:25:18.905Z,15.30
2023-10-09T03:27:47.646Z,17.58
2023-10-09T03:30:18.047Z,17.05
2023-10-09T03:32:51.853Z,15.18
2023-10-09T03:35:26.348Z,18.42
2023-10-09T03:37:58.106Z,13.18
2023-10-09T03:40:26.519Z,15.77
2023-10-09T03:42:54.891Z,13.45
2023-10-09T03:45:28.652Z,14.27
2023-10-09T03:48:03.714Z,16.92
2023-10-09T03:50:38.206Z,16.52
2023-10-09T03:53:08.801Z,15.60
2023-10-09T03:55:39.421Z,14.52
2023-10-09T03:58:08.396Z,14.48
2023-10-09T04:00:45.981Z,16.25
2023-10-09T04:03:16.447Z,15.15
2023-10-09T04:05:45.930Z,17.38
2023-10-09T04:08:20.909Z,13.65
2023-10-09T04:11:03.411Z,12.70
2023-10-09T04:13:35.512Z,15.13
2023-10-09T04:16:11.948Z,12.52
2023-10-09T04:18:45.882Z,16.63
2023-10-09T04:21:35.478Z,13.23
2023-10-09T04:24:22.558Z,16.55
2023-10-09T04:26:57.059Z,14.88
2023-10-09T04:29:28.597Z,12.25
2023-10-09T04:32:01.417Z,14.63
2023-10-09T04:34:35.910Z,19.00
2023-10-09T04:37:20.883Z,15.73
2023-10-09T04:39:51.079Z,17.08
2023-10-09T04:42:37.512Z,14.20
2023-10-09T04:45:24.391Z,14.38
2023-10-09T04:48:00.144Z,13.70
2023-10-09T04:50:46.519Z,12.73
2023-10-09T04:53:29.836Z,12.48
2023-10-09T04:55:58.635Z,13.23
2023-10-09T04:58:28.087Z,14.55
2023-10-09T05:01:13.459Z,17.83
2023-10-09T05:03:45.830Z,17.40
2023-10-09T05:06:33.599Z,13.77
2023-10-09T05:09:09.934Z,14.00
2023-10-09T05:11:52.366Z,13.85
2023-10-09T05:14:27.897Z,14.50
2023-10-09T05:16:55.958Z,11.25
2023-10-09T05:19:42.426Z,13.60
2023-10-09T05:22:37.361Z,14.00
2023-10-09T05:25:17.055Z,14.30
2023-10-09T05:27:51.543Z,18.35
2023-10-09T05:30:26.599Z,11.40
2023-10-09T05:32:59.437Z,14.10
2023-10-09T05:36:03.517Z,12.45
2023-10-09T05:38:32.348Z,12.18
2023-10-09T05:41:20.652Z,12.75
2023-10-09T05:44:06.372Z,13.27
2023-10-09T05:46:37.803Z,15.40
2023-10-09T05:49:11.110Z,16.05
2023-10-09T05:51:54.411Z,14.35
2023-10-09T05:54:41.190Z,16.48
2023-10-09T05:57:27.356Z,13.40
2023-10-09T06:00:14.993Z,10.55
2023-10-09T06:03:03.034Z,13.55
2023-10-09T06:05:52.046Z,16.10
2023-10-09T06:08:25.948Z,12.25
2023-10-09T06:11:07.186Z,13.10
2023-10-09T06:13:46.792Z,12.45
2023-10-09T06:16:42.377Z,14.88
2023-10-09T06:19:13.590Z,12.65
2023-10-09T06:22:08.339Z,14.57
2023-10-09T06:24:42.773Z,10.25
2023-10-09T06:27:25.527Z,14.98
2023-10-09T06:30:14.210Z,16.52
2023-10-09T06:32:52.055Z,14.82
2023-10-09T06:35:23.247Z,14.80
2023-10-09T06:38:09.818Z,13.52
2023-10-09T06:40:56.810Z,19.10
2023-10-09T06:43:30.078Z,13.02
2023-10-09T06:46:20.175Z,12.95
2023-10-09T06:48:57.239Z,14.25
2023-10-09T06:51:49.063Z,13.73
2023-10-09T06:54:18.015Z,14.15
2023-10-09T06:57:04.210Z,15.20
2023-10-09T07:00:03.861Z,14.32
2023-10-09T07:02:46.971Z,11.15
2023-10-09T07:05:18.608Z,15.48
2023-10-09T07:07:56.124Z,14.18
2023-10-09T07:10:40.687Z,10.98
2023-10-09T07:13:08.923Z,13.02
2023-10-09T07:15:55.624Z,9.82
2023-10-09T07:18:41.998Z,11.93
2023-10-09T07:21:13.091Z,10.02
2023-10-09T07:23:49.458Z,13.98
2023-10-09T07:26:24.208Z,15.07
2023-10-09T07:29:02.065Z,10.95
2023-10-09T07:31:41.204Z,13.85
2023-10-09T07:34:23.967Z,11.45
2023-10-09T07:36:57.430Z,15.35
2023-10-09T07:39:35.140Z,12.57
2023-10-09T07:42:16.485Z,10.93
2023-10-09T07:44:53.823Z,12.15
2023-10-09T07:47:46.889Z,12.68
2023-10-09T07:50:22.224Z,11.23
2023-10-09T07:52:50.958Z,14.15
2023-10-09T07:55:30.765Z,11.82
2023-10-09T07:58:11.797Z,13.02
2023-10-09T08:01:07.413Z,16.42
2023-10-09T08:03:37.447Z,10.15
2023-10-09T08:06:30.869Z,14.35
2023-10-09T08:09:21.685Z,11.43
2023-10-09T08:12:14.815Z,16.92
2023-10-09T08:14:44.143Z,11.32
2023-10-09T08:17:16.726Z,10.45
2023-10-09T08:19:54.637Z,10.88
2023-10-09T08:22:51.232Z,15.43
2023-10-09T08:25:28.478Z,14.68
2023-10-09T08:27:58.211Z,12.25
2023-10-09T08:30:50.322Z,12.45
2023-10-09T08:36:16.499Z,11.25
2023-10-09T08:38:46.056Z,12.00
2023-10-09T08:41:24.030Z,14.25
2023-10-09T08:43:53.243Z,14.02
2023-10-09T08:46:22.738Z,17.80
2023-10-09T08:48:51.455Z,14.15
2023-10-09T08:51:22.073Z,11.25
2023-10-09T08:53:50.534Z,10.85
2023-10-09T08:56:23.277Z,17.27
2023-10-09T08:58:53.295Z,13.02
2023-10-09T09:01:23.158Z,12.27
2023-10-09T09:03:52.308Z,10.80
2023-10-09T09:06:21.980Z,13.07
2023-10-09T09:08:50.329Z,11.18
2023-10-09T09:11:24.003Z,9.88
2023-10-09T09:14:06.012Z,12.02
2023-10-09T09:16:36.434Z,9.00
2023-10-09T09:19:18.449Z,13.40
2023-10-09T09:21:55.709Z,11.27
2023-10-09T09:24:34.206Z,11.10
2023-10-09T09:27:13.773Z,11.23
2023-10-09T09:29:53.350Z,16.75
2023-10-09T09:32:31.086Z,14.57
2023-10-09T09:35:02.138Z,13.00
2023-10-09T09:37:34.209Z,12.73
2023-10-09T09:40:11.564Z,11.10
2023-10-09T09:42:45.957Z,13.13
2023-10-09T09:45:15.114Z,11.02
2023-10-09T09:47:53.358Z,11.80
2023-10-09T09:50:25.687Z,13.90
2023-10-09T09:52:57.476Z,11.30
2023-10-09T09:55:32.089Z,12.13
2023-10-09T09:58:01.930Z,11.48
2023-10-09T10:00:43.546Z,12.02
2023-10-09T10:03:14.816Z,14.68
2023-10-09T10:05:47.365Z,12.40
2023-10-09T10:08:20.874Z,13.30
2023-10-09T10:10:53.928Z,15.15
2023-10-09T10:13:49.803Z,15.27
2023-10-09T10:16:22.084Z,10.13
2023-10-09T10:19:00.906Z,12.85
2023-10-09T10:21:40.957Z,12.20
2023-10-09T10:24:29.470Z,15.88
2023-10-09T10:27:19.092Z,9.52
2023-10-09T10:29:51.345Z,19.00
2023-10-09T10:32:21.767Z,12.93
2023-10-09T10:35:00.585Z,15.05
2023-10-09T10:37:45.434Z,12.23
2023-10-09T10:40:37.088Z,11.95
2023-10-09T10:43:14.520Z,15.02
2023-10-09T10:45:45.635Z,10.45
2023-10-09T10:48:24.415Z,13.90
2023-10-09T10:50:59.273Z,14.48
2023-10-09T10:53:36.095Z,12.07
2023-10-09T10:56:18.976Z,12.35
2023-10-09T10:59:12.879Z,13.82
2023-10-09T11:01:55.037Z,11.00
2023-10-09T11:04:39.961Z,18.70
2023-10-09T11:07:17.847Z,12.13
2023-10-09T11:09:59.690Z,10.20
2023-10-09T11:12:39.118Z,16.10
2023-10-09T11:15:08.616Z,16.25
2023-10-09T11:17:39.963Z,9.63
2023-10-09T11:20:26.314Z,10.02
2023-10-09T11:23:15.927Z,14.88
2023-10-09T11:25:51.514Z,11.75
2023-10-09T11:28:31.020Z,12.30
2023-10-09T11:31:08.132Z,12.32
2023-10-09T11:33:49.754Z,13.32
2023-10-09T11:36:17.540Z,11.93
2023-10-09T11:38:50.520Z,10.48
2023-10-09T11:41:24.180Z,11.82
2023-10-09T11:43:53.421Z,12.75
2023-10-09T11:46:37.896Z,13.15
2023-10-09T11:49:33.276Z,13.05
2023-10-09T11:52:25.728Z,11.75
2023-10-09T11:54:57.286Z,11.80
2023-10-09T11:57:31.448Z,11.98
2023-10-09T12:00:01.022Z,9.98
2023-10-09T12:02:29.929Z,11.75
2023-10-09T12:05:03.958Z,9.57
2023-10-09T12:07:39.393Z,11.98
2023-10-09T12:10:11.374Z,11.23
2023-10-09T12:12:40.743Z,14.23
2023-10-09T12:15:18.166Z,11.85
2023-10-09T12:17:48.273Z,12.25
2023-10-09T12:20:31.356Z,9.95
2023-10-09T12:23:00.385Z,15.70
2023-10-09T12:25:32.416Z,12.73
2023-10-09T12:28:02.450Z,9.07
2023-10-09T12:30:31.200Z,9.43
2023-10-09T12:33:00.528Z,10.07
2023-10-09T12:35:35.656Z,13.18
2023-10-09T12:38:04.315Z,15.00
2023-10-09T12:40:32.708Z,9.75
2023-10-09T12:43:01.147Z,10.80
2023-10-09T12:45:33.362Z,9.40
2023-10-09T12:48:04.707Z,9.38
2023-10-09T12:50:36.167Z,11.68
2023-10-09T12:53:07.894Z,13.25
2023-10-09T12:55:41.299Z,11.45
2023-10-09T12:58:10.488Z,15.60
2023-10-09T13:00:46.023Z,11.20
2023-10-09T13:03:22.660Z,11.30
2023-10-09T13:05:56.814Z,11.68
2023-10-09T13:08:33.250Z,14.45
2023-10-09T13:11:11.511Z,14.27
2023-10-09T13:13:44.099Z,10.85
2023-10-09T13:16:14.556Z,13.68
2023-10-09T13:18:50.688Z,10.75
2023-10-09T13:21:21.440Z,11.45
2023-10-09T13:23:51.129Z,11.85
2023-10-09T13:28:51.726Z,12.10
2023-10-09T13:31:21.979Z,14.02
2023-10-09T13:33:55.441Z,13.07
2023-10-09T13:36:33.563Z,14.18
2023-10-09T13:39:20.401Z,10.07
2023-10-09T13:41:48.972Z,9.43
2023-10-09T13:44:17.878Z,11.20
2023-10-09T13:46:46.581Z,9.23
2023-10-09T13:49:15.078Z,8.75
2023-10-09T13:51:45.697Z,13.32
2023-10-09T13:54:20.981Z,12.55
2023-10-09T13:56:53.872Z,12.88
2023-10-09T13:59:23.536Z,12.52
2023-10-09T14:01:52.004Z,8.98
2023-10-09T14:04:20.422Z,9.52
2023-10-09T14:06:50.420Z,10.85
2023-10-09T14:09:32.259Z,10.00
2023-10-09T14:12:08.790Z,9.15
2023-10-09T14:14:39.477Z,12.65
2023-10-09T14:17:12.817Z,9.77
2023-10-09T14:19:47.991Z,11.25
2023-10-09T14:22:18.123Z,10.30
2023-10-09T14:24:46.961Z,10.57
2023-10-09T14:27:18.353Z,9.45
2023-10-09T14:29:46.972Z,9.48
2023-10-09T14:32:15.561Z,9.40
2023-10-09T14:34:48.082Z,11.45
2023-10-09T14:37:19.098Z,10.50
2023-10-09T14:39:49.355Z,9.48
2023-10-09T14:42:18.010Z,14.80
2023-10-09T14:44:47.073Z,14.95
2023-10-09T14:47:16.206Z,11.95
2023-10-09T14:49:55.040Z,12.48
2023-10-09T14:52:30.327Z,12.43
2023-10-09T14:55:05.338Z,10.63
2023-10-09T14:57:41.838Z,13.43
2023-10-09T15:00:24.057Z,12.85
2023-10-09T15:03:04.649Z,11.32
2023-10-09T15:05:38.550Z,9.63
2023-10-09T15:08:18.390Z,12.88
2023-10-09T15:10:57.511Z,13.60
2023-10-09T15:13:35.646Z,14.25
2023-10-09T15:16:06.617Z,14.57
2023-10-09T15:18:38.384Z,13.48
2023-10-09T15:21:10.081Z,14.10
2023-10-09T15:23:47.994Z,16.88
2023-10-09T15:26:25.860Z,11.07
2023-10-09T15:28:59.835Z,12.60
2023-10-09T15:31:32.168Z,13.93
2023-10-09T15:34:00.778Z,13.40
2023-10-09T15:36:33.897Z,14.55
2023-10-09T15:39:12.150Z,12.90
2023-10-09T15:41:53.735Z,10.95
2023-10-09T15:44:29.948Z,12.00
2023-10-09T15:47:04.609Z,13.95
2023-10-09T15:49:48.840Z,14.55
2023-10-09T15:52:23.076Z,11.10
2023-10-09T15:55:02.221Z,12.32
2023-10-09T15:57:33.094Z,12.43
2023-10-09T16:00:14.644Z,12.18
2023-10-09T16:02:47.060Z,13.30
2023-10-09T16:05:20.124Z,9.48
2023-10-09T16:07:53.674Z,11.43
2023-10-09T16:10:28.086Z,17.52
2023-10-09T16:12:58.760Z,11.13
2023-10-09T16:15:34.990Z,13.27
2023-10-09T16:18:07.654Z,12.43
2023-10-09T16:20:38.630Z,38.22
2023-10-09T16:23:13.997Z,53.78
2023-10-09T16:25:57.558Z,46.70
2023-10-09T16:28:28.416Z,43.17
2023-10-09T16:30:59.894Z,39.58
2023-10-09T16:33:34.750Z,38.35
2023-10-09T16:36:04.340Z,30.85
2023-10-09T16:38:40.677Z,28.85
2023-10-09T16:41:19.734Z,29.38
2023-10-09T16:43:51.244Z,22.23
2023-10-09T16:46:27.471Z,19.25
2023-10-09T16:49:04.130Z,17.83
2023-10-09T16:51:39.400Z,22.23
2023-10-09T16:54:08.044Z,15.75
2023-10-09T16:56:47.404Z,15.52
2023-10-09T16:59:19.468Z,14.82
2023-10-09T17:01:49.026Z,12.60
2023-10-09T17:04:19.095Z,18.92
2023-10-09T17:06:56.182Z,12.57
2023-10-09T17:09:32.305Z,13.05
2023-10-09T17:12:08.858Z,11.48
2023-10-09T17:14:38.539Z,13.02
2023-10-09T17:17:09.638Z,12.38
2023-10-09T17:19:42.883Z,12.43
2023-10-09T17:22:13.583Z,12.98
2023-10-09T17:24:45.817Z,13.85
2023-10-09T17:27:20.891Z,13.52
2023-10-09T17:30:03.116Z,11.30
2023-10-09T17:32:36.206Z,12.73
2023-10-09T17:35:09.319Z,10.57
2023-10-09T17:37:40.014Z,15.60
2023-10-09T17:40:09.083Z,14.30
2023-10-09T17:42:43.115Z,15.27
2023-10-09T17:45:14.143Z,12.68
2023-10-09T17:47:42.699Z,14.32
2023-10-09T17:50:13.632Z,10.48
2023-10-09T17:52:48.203Z,11.05
2023-10-09T17:55:19.048Z,10.30
2023-10-09T17:57:50.703Z,11.52
2023-10-09T18:00:24.293Z,13.98
2023-10-09T18:02:53.913Z,11.55
2023-10-09T18:05:22.801Z,13.80
2023-10-09T18:07:51.586Z,12.77
2023-10-09T18:10:22.068Z,11.85
2023-10-09T18:12:51.907Z,11.38
2023-10-09T18:15:21.931Z,11.93
2023-10-09T18:17:51.330Z,21.45
2023-10-09T18:20:21.765Z,19.58
2023-10-09T18:22:51.672Z,20.67
2023-10-09T18:25:20.205Z,20.23
2023-10-09T18:27:48.555Z,20.83
2023-10-09T18:30:18.628Z,18.85
2023-10-09T18:32:47.529Z,28.20
2023-10-09T18:35:17.072Z,24.70
2023-10-09T18:37:45.680Z,22.17
2023-10-09T18:40:14.148Z,19.27
2023-10-09T18:42:42.565Z,12.65
2023-10-09T18:45:16.408Z,13.88
2023-10-09T18:47:47.011Z,16.45
2023-10-09T18:50:17.392Z,14.63
2023-10-09T18:52:45.944Z,20.70
2023-10-09T18:55:14.631Z,24.25
2023-10-09T18:57:44.135Z,24.23
2023-10-09T19:00:20.691Z,25.17
2023-10-09T19:02:52.794Z,28.67
2023-10-09T19:05:21.878Z,19.90
2023-10-09T19:07:51.089Z,23.65
2023-10-09T19:10:22.230Z,25.92
2023-10-09T19:12:54.715Z,20.67
2023-10-09T19:15:25.813Z,14.20
2023-10-09T19:17:55.682Z,18.33
2023-10-09T19:20:24.335Z,14.57
2023-10-09T19:22:52.784Z,12.65
2023-10-09T19:25:28.487Z,11.40
2023-10-09T19:27:58.164Z,16.92
2023-10-09T19:30:29.791Z,11.27
2023-10-09T19:33:00.789Z,13.65
2023-10-09T19:35:29.604Z,11.68
2023-10-09T19:37:58.660Z,13.05
2023-10-09T19:40:27.641Z,11.57
2023-10-09T19:42:55.948Z,12.90
2023-10-09T19:45:24.324Z,12.18
2023-10-09T19:47:53.400Z,15.82
2023-10-09T19:50:26.179Z,16.08
2023-10-09T19:52:54.729Z,11.48
2023-10-09T19:55:23.510Z,11.13
2023-10-09T19:57:52.280Z,15.60
2023-10-09T20:00:23.946Z,11.57
2023-10-09T20:02:55.014Z,13.30
2023-10-09T20:05:28.273Z,13.13
2023-10-09T20:08:00.373Z,15.35
2023-10-09T20:10:28.866Z,15.85
2023-10-09T20:12:57.392Z,17.38
2023-10-09T20:15:26.305Z,16.98
2023-10-09T20:17:55.278Z,15.98
2023-10-09T20:20:24.254Z,16.45
2023-10-09T20:22:54.665Z,16.92
2023-10-09T20:25:23.931Z,14.77
2023-10-09T20:27:53.760Z,14.93
2023-10-09T20:30:25.182Z,16.55
2023-10-09T20:32:53.996Z,18.45
2023-10-09T20:35:27.584Z,18.45
2023-10-09T20:38:02.555Z,16.30
2023-10-09T20:40:31.228Z,15.43
2023-10-09T20:42:59.556Z,13.68
2023-10-09T20:45:27.912Z,16.52
2023-10-09T20:47:56.853Z,13.45
2023-10-09T20:50:26.939Z,19.25
2023-10-09T20:52:56.022Z,13.00
2023-10-09T20:55:25.816Z,17.15
2023-10-09T20:57:57.522Z,14.13
2023-10-09T21:00:28.293Z,13.95
2023-10-09T21:02:57.779Z,12.80
2023-10-09T21:05:28.046Z,13.32
2023-10-09T21:07:57.899Z,16.75
2023-10-09T21:10:27.738Z,12.55
2023-10-09T21:12:58.552Z,13.70
2023-10-09T21:15:28.979Z,15.50
2023-10-09T21:17:58.285Z,14.85
2023-10-09T21:20:35.059Z,14.25
2023-10-09T21:23:11.535Z,15.20
2023-10-09T21:25:49.042Z,13.60
2023-10-09T21:28:17.441Z,12.07
2023-10-09T21:30:46.049Z,13.63
2023-10-09T21:33:16.396Z,13.85
2023-10-09T21:35:45.040Z,12.43
2023-10-09T21:38:14.563Z,11.32
2023-10-09T21:40:44.312Z,12.43
2023-10-09T21:43:12.832Z,12.95
2023-10-09T21:45:45.724Z,13.27
2023-10-09T21:48:17.291Z,16.70
2023-10-09T21:50:46.041Z,11.35
2023-10-09T21:53:14.521Z,12.02
2023-10-09T21:55:44.825Z,11.95
2023-10-09T21:58:13.320Z,11.07
2023-10-09T22:00:47.756Z,9.32
2023-10-09T22:03:16.728Z,12.52
2023-10-09T22:05:47.314Z,10.10
2023-10-09T22:08:17.389Z,12.77
2023-10-09T22:10:48.763Z,11.77
2023-10-09T22:13:19.564Z,13.20
2023-10-09T22:15:49.237Z,14.85
2023-10-09T22:18:21.943Z,13.05
2023-10-09T22:20:50.405Z,13.60
2023-10-09T22:23:20.304Z,13.40
2023-10-09T22:26:01.206Z,18.17
2023-10-09T22:28:30.389Z,13.88
2023-10-09T22:31:04.538Z,11.77
2023-10-09T22:33:46.508Z,14.65
2023-10-09T22:36:28.366Z,12.13
2023-10-09T22:39:00.660Z,16.02
2023-10-09T22:41:30.852Z,14.43
2023-10-09T22:44:00.540Z,13.15
2023-10-09T22:46:29.208Z,11.95
2023-10-09T22:49:13.807Z,11.07
2023-10-09T22:51:42.827Z,10.20
2023-10-09T22:54:13.171Z,10.88
2023-10-09T22:56:44.615Z,13.02
2023-10-09T22:59:22.234Z,12.70
2023-10-09T23:01:56.012Z,12.88
2023-10-09T23:04:38.005Z,12.77
2023-10-09T23:07:15.121Z,12.30
2023-10-09T23:09:51.004Z,14.52
2023-10-09T23:12:24.057Z,11.68
2023-10-09T23:14:53.772Z,13.15
2023-10-09T23:17:42.485Z,13.75
2023-10-09T23:20:19.599Z,15.38
2023-10-09T23:22:50.284Z,12.15
2023-10-09T23:25:28.702Z,10.93
2023-10-09T23:30:59.539Z,13.18
2023-10-09T23:33:31.156Z,13.27
2023-10-09T23:36:05.296Z,11.02
2023-10-09T23:38:36.041Z,13.55
2023-10-09T23:41:10.733Z,11.40
2023-10-09T23:43:46.935Z,14.48
2023-10-09T23:46:18.549Z,12.85
2023-10-09T23:48:49.801Z,11.60
2023-10-09T23:51:20.583Z,12.27
2023-10-09T23:53:53.268Z,11.15
2023-10-09T23:56:35.923Z,12.65
2023-10-09T23:59:12.000Z,10.07
